Brillion, Wisconsin
Current Conditions -  °F | °C
As of 10:56 AM on Monday 22 Dec 2014 (Local Time) from KMTW Reporting Station
Overcast Overcast  
Wind Chill: -2°   Ceiling: 1300
Heat Index:   Visibility: 7mi
Dew Point:   Wind: 14mph
Humidity: 86%   Direction: 140°SE
Pressure: 29.9"   Gusts: NA
Location:  44.18°N, 88.06°W
Report Text: KMTW 221656Z AUTO 14012KT 7SM OVC013 03/01 A2990 RMK AO2 SLP149 T00280006
Loading
Personal Weather Stations






























Interactive Weather Map New forecast layout! Learn more

10-Day Weather Forecast

Advertisements
Track Severe Weather on mobile